Time;durP1;ratioP1;P1;durP2;ratioP2;P2;SDS_P1;SDS_P2;PMS_P1;PMS_P2;Temp;Humidity;BMP_temperature;BMP_pressure;BME280_temperature;BME280_humidity;BME280_pressure;Samples;Min_cycle;Max_cycle;Signal;HPM_P1;HPM_P2
2021/03/03 00:00:12;;;;;;;0.20;0.20;;;;;;;;;;5098657;28;20032;-66
2021/03/03 00:02:39;;;;;;;0.20;0.20;;;;;;;;;;5093230;28;20016;-66
2021/03/03 00:05:06;;;;;;;0.20;0.20;;;;;;;;;;5090335;28;20027;-66
2021/03/03 00:07:31;;;;;;;0.20;0.20;;;;;;;;;;5097284;28;20051;-66
2021/03/03 00:09:57;;;;;;;0.20;0.20;;;;;;;;;;5099063;28;20414;-66
2021/03/03 00:12:22;;;;;;;0.20;0.20;;;;;;;;;;5080721;28;20044;-66
2021/03/03 00:14:47;;;;;;;0.20;0.20;;;;;;;;;;5099964;28;20031;-66
2021/03/03 00:17:12;;;;;;;0.20;0.20;;;;;;;;;;5101391;28;20304;-66
2021/03/03 00:19:37;;;;;;;0.20;0.20;;;;;;;;;;5099053;28;20335;-66
2021/03/03 00:22:03;;;;;;;0.20;0.20;;;;;;;;;;5084433;28;20107;-66
2021/03/03 00:24:28;;;;;;;0.20;0.20;;;;;;;;;;5100867;28;20979;-66
2021/03/03 00:26:53;;;;;;;0.20;0.20;;;;;;;;;;5098652;28;20070;-66
2021/03/03 00:29:18;;;;;;;0.10;0.10;;;;;;;;;;5078274;28;20286;-66
2021/03/03 00:31:44;;;;;;;0.20;0.20;;;;;;;;;;5101616;28;20637;-66
2021/03/03 00:34:09;;;;;;;0.20;0.20;;;;;;;;;;5099386;28;20270;-66
2021/03/03 00:36:34;;;;;;;0.30;0.30;;;;;;;;;;5100637;28;20059;-66
2021/03/03 00:38:59;;;;;;;0.20;0.20;;;;;;;;;;5082016;28;20293;-66
2021/03/03 00:41:25;;;;;;;0.15;0.15;;;;;;;;;;5097337;28;20012;-66
2021/03/03 00:43:50;;;;;;;0.20;0.20;;;;;;;;;;5106264;28;20088;-66
2021/03/03 00:46:16;;;;;;;0.20;0.20;;;;;;;;;;5095644;28;20470;-66
2021/03/03 00:48:43;;;;;;;0.20;0.20;;;;;;;;;;5090993;28;20258;-66
2021/03/03 00:51:09;;;;;;;0.20;0.20;;;;;;;;;;5100052;28;20024;-66
2021/03/03 00:53:34;;;;;;;0.20;0.20;;;;;;;;;;5105470;28;20486;-66
2021/03/03 00:55:59;;;;;;;0.20;0.20;;;;;;;;;;5097287;28;20353;-66
2021/03/03 00:58:25;;;;;;;0.20;0.20;;;;;;;;;;5097132;28;20028;-66
2021/03/03 01:00:51;;;;;;;0.20;0.20;;;;;;;;;;5101140;28;20122;-66
2021/03/03 01:03:19;;;;;;;0.20;0.20;;;;;;;;;;5096887;28;20033;-66
2021/03/03 01:06:01;;;;;;;0.20;0.20;;;;;;;;;;5105089;28;20521;-66
2021/03/03 01:08:26;;;;;;;0.20;0.20;;;;;;;;;;5102471;28;20028;-66
2021/03/03 01:10:52;;;;;;;0.20;0.20;;;;;;;;;;5101450;28;20024;-66
2021/03/03 01:13:17;;;;;;;0.20;0.20;;;;;;;;;;5103631;28;20426;-66
2021/03/03 01:15:42;;;;;;;0.30;0.30;;;;;;;;;;5100899;28;20266;-66
2021/03/03 01:18:07;;;;;;;0.30;0.30;;;;;;;;;;5107123;28;20028;-66
2021/03/03 01:20:32;;;;;;;0.20;0.20;;;;;;;;;;5102034;28;20356;-66
2021/03/03 01:22:58;;;;;;;0.20;0.20;;;;;;;;;;5083813;28;20266;-66
2021/03/03 01:25:23;;;;;;;0.20;0.20;;;;;;;;;;5102401;28;20020;-66
2021/03/03 01:27:48;;;;;;;0.20;0.20;;;;;;;;;;5107263;28;20051;-66
2021/03/03 01:30:15;;;;;;;0.20;0.20;;;;;;;;;;5107010;28;20998;-66
2021/03/03 01:32:40;;;;;;;0.20;0.20;;;;;;;;;;5097997;28;20293;-65
2021/03/03 01:35:07;;;;;;;0.30;0.30;;;;;;;;;;5097629;28;20035;-66
2021/03/03 01:37:32;;;;;;;0.20;0.20;;;;;;;;;;5099663;28;20282;-66
2021/03/03 01:39:57;;;;;;;0.20;0.20;;;;;;;;;;5083401;28;20548;-66
2021/03/03 01:42:23;;;;;;;0.20;0.20;;;;;;;;;;5104499;28;20012;-66
2021/03/03 01:44:48;;;;;;;0.30;0.30;;;;;;;;;;5103313;28;20015;-66
2021/03/03 01:47:13;;;;;;;0.20;0.20;;;;;;;;;;5101879;28;20266;-66
2021/03/03 01:49:38;;;;;;;0.20;0.20;;;;;;;;;;5092423;28;20272;-66
2021/03/03 01:52:03;;;;;;;0.30;0.30;;;;;;;;;;5098683;28;20020;-66
2021/03/03 01:54:29;;;;;;;0.30;0.30;;;;;;;;;;5103899;28;20336;-66
2021/03/03 01:56:54;;;;;;;0.20;0.20;;;;;;;;;;5101211;28;20764;-66
2021/03/03 01:59:22;;;;;;;0.20;0.20;;;;;;;;;;5085877;28;20030;-66
2021/03/03 02:01:51;;;;;;;0.22;0.22;;;;;;;;;;5104657;28;20387;-66
2021/03/03 02:04:16;;;;;;;0.20;0.20;;;;;;;;;;5106827;28;20098;-66
2021/03/03 02:06:41;;;;;;;0.28;0.28;;;;;;;;;;5100684;28;20098;-67
2021/03/03 02:09:11;;;;;;;0.20;0.20;;;;;;;;;;5102136;28;20060;-66
2021/03/03 02:11:42;;;;;;;0.20;0.20;;;;;;;;;;5096341;28;20524;-66
2021/03/03 02:14:08;;;;;;;0.20;0.20;;;;;;;;;;5102878;28;20403;-66
2021/03/03 02:16:35;;;;;;;0.30;0.30;;;;;;;;;;5103587;28;20019;-66
2021/03/03 02:19:00;;;;;;;0.20;0.20;;;;;;;;;;5104602;28;20046;-66
2021/03/03 02:21:28;;;;;;;0.30;0.30;;;;;;;;;;5098675;28;20024;-66
2021/03/03 02:24:01;;;;;;;0.20;0.20;;;;;;;;;;5101375;28;20019;-67
2021/03/03 02:26:35;;;;;;;0.30;0.30;;;;;;;;;;5081109;28;20481;-67
2021/03/03 02:29:14;;;;;;;0.20;0.20;;;;;;;;;;5102057;28;20112;-67
2021/03/03 02:31:41;;;;;;;0.20;0.20;;;;;;;;;;5084681;28;20396;-67
2021/03/03 02:34:06;;;;;;;0.20;0.20;;;;;;;;;;5101792;28;20012;-67
2021/03/03 02:36:32;;;;;;;0.20;0.20;;;;;;;;;;5103859;28;20608;-67
2021/03/03 02:38:57;;;;;;;0.20;0.20;;;;;;;;;;5104130;28;20028;-67
2021/03/03 02:41:22;;;;;;;0.20;0.20;;;;;;;;;;5105120;28;20269;-67
2021/03/03 02:43:47;;;;;;;0.20;0.20;;;;;;;;;;5087266;28;20019;-67
2021/03/03 02:46:13;;;;;;;0.20;0.20;;;;;;;;;;5108153;28;20345;-68
2021/03/03 02:48:38;;;;;;;0.20;0.20;;;;;;;;;;5109130;28;20060;-67
2021/03/03 02:51:03;;;;;;;0.20;0.20;;;;;;;;;;5106342;28;20023;-67
2021/03/03 02:53:32;;;;;;;0.20;0.20;;;;;;;;;;5104975;28;20028;-67
2021/03/03 02:55:57;;;;;;;0.20;0.20;;;;;;;;;;5100976;28;20027;-67
2021/03/03 02:58:22;;;;;;;0.20;0.20;;;;;;;;;;5099794;28;20024;-67
2021/03/03 03:00:47;;;;;;;0.30;0.30;;;;;;;;;;5100362;28;20273;-67
2021/03/03 03:03:18;;;;;;;0.30;0.30;;;;;;;;;;5100263;28;20341;-67
2021/03/03 03:05:44;;;;;;;0.20;0.20;;;;;;;;;;5099757;28;20020;-67
2021/03/03 03:08:11;;;;;;;0.20;0.20;;;;;;;;;;5084825;28;20016;-67
2021/03/03 03:10:36;;;;;;;0.20;0.20;;;;;;;;;;5102190;28;20396;-67
2021/03/03 03:13:02;;;;;;;0.22;0.22;;;;;;;;;;5102442;28;20031;-67
2021/03/03 03:15:29;;;;;;;0.30;0.30;;;;;;;;;;5098968;28;20027;-66
2021/03/03 03:17:55;;;;;;;0.20;0.20;;;;;;;;;;5100215;28;20304;-66
2021/03/03 03:20:21;;;;;;;0.30;0.30;;;;;;;;;;5103525;28;20024;-65
2021/03/03 03:22:46;;;;;;;0.20;0.20;;;;;;;;;;5104930;28;20023;-65
2021/03/03 03:25:12;;;;;;;0.20;0.20;;;;;;;;;;5082925;28;20274;-65
2021/03/03 03:27:37;;;;;;;0.30;0.30;;;;;;;;;;5099155;28;20357;-65
2021/03/03 03:30:02;;;;;;;0.20;0.20;;;;;;;;;;5084908;28;20035;-65
2021/03/03 03:32:28;;;;;;;0.30;0.30;;;;;;;;;;5084769;28;20713;-65
2021/03/03 03:34:53;;;;;;;0.20;0.20;;;;;;;;;;5101870;28;20030;-65
2021/03/03 03:37:18;;;;;;;0.20;0.20;;;;;;;;;;5102436;28;20322;-65
2021/03/03 03:39:46;;;;;;;0.23;0.23;;;;;;;;;;5083432;28;20381;-65
2021/03/03 03:42:12;;;;;;;0.28;0.28;;;;;;;;;;5085206;28;20258;-65
2021/03/03 03:44:38;;;;;;;0.20;0.20;;;;;;;;;;5098639;28;20366;-65
2021/03/03 03:47:03;;;;;;;0.20;0.20;;;;;;;;;;5101241;28;20460;-66
2021/03/03 03:49:28;;;;;;;0.27;0.27;;;;;;;;;;5096671;28;20023;-66
2021/03/03 03:51:53;;;;;;;0.20;0.20;;;;;;;;;;5102349;28;20265;-66
2021/03/03 03:54:18;;;;;;;0.25;0.25;;;;;;;;;;5104249;28;20353;-66
2021/03/03 03:56:43;;;;;;;0.20;0.20;;;;;;;;;;5089272;28;20139;-66
2021/03/03 03:59:09;;;;;;;0.20;0.20;;;;;;;;;;5100622;28;20285;-65
2021/03/03 04:01:35;;;;;;;0.20;0.20;;;;;;;;;;5102831;28;20023;-65
2021/03/03 04:04:00;;;;;;;0.20;0.20;;;;;;;;;;5078935;28;20027;-65
2021/03/03 04:06:25;;;;;;;0.20;0.20;;;;;;;;;;5099972;28;20465;-65
2021/03/03 04:08:50;;;;;;;0.20;0.20;;;;;;;;;;5097703;28;20292;-65
2021/03/03 04:11:15;;;;;;;0.20;0.20;;;;;;;;;;5102435;28;20768;-65
2021/03/03 04:13:40;;;;;;;0.20;0.20;;;;;;;;;;5100643;28;20373;-65
2021/03/03 04:16:06;;;;;;;0.30;0.30;;;;;;;;;;5105120;28;20289;-65
2021/03/03 04:18:31;;;;;;;0.20;0.20;;;;;;;;;;5100008;28;20269;-65
2021/03/03 04:20:56;;;;;;;0.20;0.20;;;;;;;;;;5099540;28;20281;-65
2021/03/03 04:23:21;;;;;;;0.30;0.30;;;;;;;;;;5099663;28;20028;-65
2021/03/03 04:25:47;;;;;;;0.30;0.30;;;;;;;;;;5101912;28;20818;-65
2021/03/03 04:28:12;;;;;;;0.20;0.20;;;;;;;;;;5092016;28;20478;-65
2021/03/03 04:30:37;;;;;;;0.30;0.30;;;;;;;;;;5106549;28;20300;-65
2021/03/03 04:33:03;;;;;;;0.30;0.30;;;;;;;;;;5077025;28;20440;-65
2021/03/03 04:35:28;;;;;;;0.20;0.20;;;;;;;;;;5104564;28;20262;-65
2021/03/03 04:37:54;;;;;;;0.30;0.30;;;;;;;;;;5107763;28;20387;-65
2021/03/03 04:40:19;;;;;;;0.30;0.30;;;;;;;;;;5088352;28;20020;-65
2021/03/03 04:42:47;;;;;;;0.20;0.20;;;;;;;;;;5081853;28;20103;-65
2021/03/03 04:45:12;;;;;;;0.20;0.20;;;;;;;;;;5103931;28;21552;-65
2021/03/03 04:47:40;;;;;;;0.30;0.30;;;;;;;;;;5103707;28;20015;-65
2021/03/03 04:50:09;;;;;;;0.20;0.20;;;;;;;;;;5103472;28;20032;-65
2021/03/03 04:52:34;;;;;;;0.30;0.30;;;;;;;;;;5085462;28;20115;-65
2021/03/03 04:54:59;;;;;;;0.20;0.20;;;;;;;;;;5106202;28;20110;-65
2021/03/03 04:57:24;;;;;;;0.30;0.30;;;;;;;;;;5102014;28;20384;-65
2021/03/03 04:59:50;;;;;;;0.20;0.20;;;;;;;;;;5103970;28;20273;-66
2021/03/03 05:02:15;;;;;;;0.20;0.20;;;;;;;;;;5107423;28;20426;-66
2021/03/03 05:04:40;;;;;;;0.25;0.25;;;;;;;;;;5087011;28;20279;-65
2021/03/03 05:07:05;;;;;;;0.30;0.30;;;;;;;;;;5101043;28;20035;-66
2021/03/03 05:09:30;;;;;;;0.30;0.30;;;;;;;;;;5084045;28;20076;-65
2021/03/03 05:11:55;;;;;;;0.22;0.22;;;;;;;;;;5099275;28;20040;-65
2021/03/03 05:14:21;;;;;;;0.20;0.20;;;;;;;;;;5105219;28;20020;-65
2021/03/03 05:16:46;;;;;;;0.20;0.20;;;;;;;;;;5104629;28;20268;-65
2021/03/03 05:19:12;;;;;;;0.20;0.20;;;;;;;;;;5104615;28;20063;-66
2021/03/03 05:21:37;;;;;;;0.30;0.30;;;;;;;;;;5101579;28;20019;-65
2021/03/03 05:24:02;;;;;;;0.20;0.20;;;;;;;;;;5110515;28;20464;-66
2021/03/03 05:26:28;;;;;;;0.20;0.20;;;;;;;;;;5109079;28;20284;-69
2021/03/03 05:28:53;;;;;;;0.28;0.28;;;;;;;;;;5114088;28;20073;-69
2021/03/03 05:31:18;;;;;;;0.30;0.30;;;;;;;;;;5110411;28;20092;-69
2021/03/03 05:33:44;;;;;;;0.30;0.30;;;;;;;;;;5107742;28;20027;-69
2021/03/03 05:36:09;;;;;;;0.30;0.30;;;;;;;;;;5104825;28;20470;-68
2021/03/03 05:38:35;;;;;;;0.30;0.30;;;;;;;;;;5098701;28;20016;-68
2021/03/03 05:41:00;;;;;;;0.30;0.30;;;;;;;;;;5109015;28;20697;-69
2021/03/03 05:43:25;;;;;;;0.30;0.30;;;;;;;;;;5100796;28;20027;-68
2021/03/03 05:45:51;;;;;;;0.23;0.23;;;;;;;;;;5096904;28;20154;-69
2021/03/03 05:48:22;;;;;;;0.30;0.30;;;;;;;;;;5099103;28;20260;-69
2021/03/03 05:50:47;;;;;;;0.30;0.30;;;;;;;;;;5102420;28;20099;-69
2021/03/03 05:53:13;;;;;;;0.30;0.30;;;;;;;;;;5089021;28;20161;-69
2021/03/03 05:55:38;;;;;;;0.30;0.30;;;;;;;;;;5100530;28;20392;-69
2021/03/03 05:58:03;;;;;;;0.20;0.20;;;;;;;;;;5103600;28;20027;-68
2021/03/03 06:00:29;;;;;;;0.30;0.30;;;;;;;;;;5083013;28;20843;-68
2021/03/03 06:02:54;;;;;;;0.20;0.20;;;;;;;;;;5100688;28;20262;-68
2021/03/03 06:05:20;;;;;;;0.20;0.20;;;;;;;;;;5085452;28;20035;-68
2021/03/03 06:07:45;;;;;;;0.30;0.30;;;;;;;;;;5104665;28;20103;-68
2021/03/03 06:10:11;;;;;;;0.28;0.28;;;;;;;;;;5093455;28;20031;-68
2021/03/03 06:12:36;;;;;;;0.22;0.22;;;;;;;;;;5100174;28;20421;-68
2021/03/03 06:15:02;;;;;;;0.30;0.30;;;;;;;;;;5079179;28;20470;-67
2021/03/03 06:17:28;;;;;;;0.30;0.30;;;;;;;;;;5104148;28;20269;-68
2021/03/03 06:19:53;;;;;;;0.20;0.20;;;;;;;;;;5102496;28;20053;-68
2021/03/03 06:22:25;;;;;;;0.20;0.20;;;;;;;;;;5099120;28;20027;-68
2021/03/03 06:24:50;;;;;;;0.30;0.30;;;;;;;;;;5106775;28;20622;-68
2021/03/03 06:27:15;;;;;;;0.20;0.20;;;;;;;;;;5102044;28;20019;-69
2021/03/03 06:29:41;;;;;;;0.20;0.20;;;;;;;;;;5090853;28;20047;-69
2021/03/03 06:32:06;;;;;;;0.25;0.25;;;;;;;;;;5078041;28;20392;-68
2021/03/03 06:34:31;;;;;;;0.30;0.30;;;;;;;;;;5096924;28;20032;-68
2021/03/03 06:37:03;;;;;;;0.20;0.20;;;;;;;;;;5082358;28;20043;-69
2021/03/03 06:39:32;;;;;;;0.30;0.30;;;;;;;;;;5097280;28;20104;-69
2021/03/03 06:42:03;;;;;;;0.30;0.30;;;;;;;;;;5094701;28;20024;-68
2021/03/03 06:44:48;;;;;;;0.20;0.20;;;;;;;;;;5101386;28;20030;-68
2021/03/03 06:47:13;;;;;;;0.30;0.30;;;;;;;;;;5080325;28;20020;-68
2021/03/03 06:49:38;;;;;;;0.30;0.30;;;;;;;;;;5101017;28;20034;-68
2021/03/03 06:52:05;;;;;;;0.20;0.20;;;;;;;;;;5098790;28;20270;-68
2021/03/03 06:54:30;;;;;;;0.30;0.30;;;;;;;;;;5103476;28;20024;-68
2021/03/03 06:56:55;;;;;;;0.30;0.30;;;;;;;;;;5099708;28;20038;-68
2021/03/03 06:59:23;;;;;;;0.30;0.30;;;;;;;;;;5102050;28;20864;-69
2021/03/03 07:01:52;;;;;;;0.30;0.30;;;;;;;;;;5104239;28;20066;-68
2021/03/03 07:04:18;;;;;;;0.20;0.20;;;;;;;;;;5097357;28;20024;-69
2021/03/03 07:06:43;;;;;;;0.30;0.30;;;;;;;;;;5101773;28;20581;-68
2021/03/03 07:09:08;;;;;;;0.30;0.30;;;;;;;;;;5104186;28;20143;-69
2021/03/03 07:11:34;;;;;;;0.20;0.20;;;;;;;;;;5100226;27;20074;-69
2021/03/03 07:13:59;;;;;;;0.30;0.30;;;;;;;;;;5105703;28;20779;-70
2021/03/03 07:16:24;;;;;;;0.20;0.20;;;;;;;;;;5098737;28;20027;-69
2021/03/03 07:18:50;;;;;;;0.20;0.20;;;;;;;;;;5100714;28;20296;-69
2021/03/03 07:21:15;;;;;;;0.20;0.20;;;;;;;;;;5090946;28;20023;-69
2021/03/03 07:23:41;;;;;;;0.25;0.25;;;;;;;;;;5081651;28;20289;-70
2021/03/03 07:26:06;;;;;;;0.30;0.30;;;;;;;;;;5081524;28;20037;-69
2021/03/03 07:28:31;;;;;;;0.30;0.30;;;;;;;;;;5095246;28;20528;-69
2021/03/03 07:30:57;;;;;;;0.30;0.30;;;;;;;;;;5094945;28;20312;-69
2021/03/03 07:33:25;;;;;;;0.30;0.30;;;;;;;;;;5101336;28;20278;-68
2021/03/03 07:35:50;;;;;;;0.25;0.25;;;;;;;;;;5098207;28;20385;-68
2021/03/03 07:38:15;;;;;;;0.20;0.20;;;;;;;;;;5076871;28;20032;-69
2021/03/03 07:40:40;;;;;;;0.30;0.30;;;;;;;;;;5092925;28;20032;-69
2021/03/03 07:43:05;;;;;;;0.30;0.30;;;;;;;;;;5083617;28;20303;-69
2021/03/03 07:45:34;;;;;;;0.20;0.20;;;;;;;;;;5099174;28;20281;-69
2021/03/03 07:48:02;;;;;;;0.20;0.20;;;;;;;;;;5082034;28;20023;-68
2021/03/03 07:50:27;;;;;;;0.20;0.20;;;;;;;;;;5081875;28;20138;-68
2021/03/03 07:52:56;;;;;;;0.20;0.20;;;;;;;;;;5100894;28;20649;-68
2021/03/03 07:55:22;;;;;;;0.22;0.22;;;;;;;;;;5087255;28;20777;-72
2021/03/03 07:57:47;;;;;;;0.20;0.20;;;;;;;;;;5100058;28;20016;-71
2021/03/03 08:00:14;;;;;;;0.30;0.30;;;;;;;;;;5102860;28;20506;-69
2021/03/03 08:02:49;;;;;;;0.20;0.20;;;;;;;;;;5080604;28;20027;-69
2021/03/03 08:05:43;;;;;;;0.20;0.20;;;;;;;;;;5097383;28;20042;-69
2021/03/03 08:08:26;;;;;;;0.20;0.20;;;;;;;;;;5087575;28;20031;-69
2021/03/03 08:10:51;;;;;;;0.20;0.20;;;;;;;;;;5105606;28;20015;-69
2021/03/03 08:13:17;;;;;;;0.20;0.20;;;;;;;;;;5107596;28;20113;-70
2021/03/03 08:15:46;;;;;;;0.30;0.30;;;;;;;;;;5105142;28;20050;-70
2021/03/03 08:18:14;;;;;;;0.22;0.22;;;;;;;;;;5104160;28;20076;-70
2021/03/03 08:20:50;;;;;;;0.20;0.20;;;;;;;;;;5105567;28;20690;-71
2021/03/03 08:23:15;;;;;;;;;;;;;;;;;;5104704;28;20468;-71
2021/03/03 08:25:47;;;;;;;0.30;0.30;;;;;;;;;;5104160;28;19912;-71
2021/03/03 08:28:22;;;;;;;0.20;0.20;;;;;;;;;;5106042;28;20040;-72
2021/03/03 08:31:07;;;;;;;0.20;0.20;;;;;;;;;;5104789;28;20161;-71
2021/03/03 08:33:32;;;;;;;0.20;0.20;;;;;;;;;;5104818;28;20104;-71
2021/03/03 08:35:57;;;;;;;0.20;0.20;;;;;;;;;;5085392;28;20051;-71
2021/03/03 08:38:23;;;;;;;0.20;0.20;;;;;;;;;;5102844;28;20027;-73
2021/03/03 08:40:48;;;;;;;0.20;0.20;;;;;;;;;;5086199;28;20488;-72
2021/03/03 08:43:32;;;;;;;0.20;0.20;;;;;;;;;;5083962;28;20288;-71
2021/03/03 08:45:57;;;;;;;0.22;0.22;;;;;;;;;;5103708;28;20757;-72
2021/03/03 08:48:22;;;;;;;0.30;0.30;;;;;;;;;;5101903;28;20027;-69
2021/03/03 08:50:48;;;;;;;0.20;0.20;;;;;;;;;;5100806;28;20496;-74
2021/03/03 08:53:24;;;;;;;0.20;0.20;;;;;;;;;;5104043;28;20274;-75
2021/03/03 08:55:49;;;;;;;0.20;0.20;;;;;;;;;;5105577;28;20473;-75
2021/03/03 08:58:41;;;;;;;0.30;0.30;;;;;;;;;;5106403;28;20027;-74
2021/03/03 09:01:06;;;;;;;0.20;0.20;;;;;;;;;;5101506;28;20036;-75
2021/03/03 09:03:31;;;;;;;0.10;0.10;;;;;;;;;;5105185;28;20939;-74
2021/03/03 09:05:57;;;;;;;0.20;0.20;;;;;;;;;;5088953;28;20262;-74
2021/03/03 09:08:22;;;;;;;0.20;0.20;;;;;;;;;;5086528;28;20372;-75
2021/03/03 09:10:48;;;;;;;0.20;0.20;;;;;;;;;;5104604;28;20103;-75
2021/03/03 09:13:22;;;;;;;0.10;0.10;;;;;;;;;;5104120;28;20110;-75
2021/03/03 09:16:02;;;;;;;0.20;0.20;;;;;;;;;;5108159;28;20030;-75
2021/03/03 09:18:27;;;;;;;0.20;0.20;;;;;;;;;;5105939;28;20567;-76
2021/03/03 09:21:13;;;;;;;0.20;0.20;;;;;;;;;;5092611;28;20024;-75
2021/03/03 09:23:39;;;;;;;0.20;0.20;;;;;;;;;;5101533;28;20088;-76
2021/03/03 09:26:19;;;;;;;0.20;0.20;;;;;;;;;;5087219;28;20020;-76
2021/03/03 09:28:44;;;;;;;0.20;0.20;;;;;;;;;;5089469;28;20047;-75
2021/03/03 09:31:22;;;;;;;0.20;0.20;;;;;;;;;;5102716;28;20027;-76
2021/03/03 09:33:47;;;;;;;0.20;0.20;;;;;;;;;;5103624;28;20269;-76
2021/03/03 09:36:13;;;;;;;0.10;0.10;;;;;;;;;;5086942;28;20549;-76
2021/03/03 09:38:38;;;;;;;0.20;0.20;;;;;;;;;;5104873;28;20773;-76
2021/03/03 09:41:10;;;;;;;0.20;0.20;;;;;;;;;;5105092;28;20023;-75
2021/03/03 09:43:35;;;;;;;0.20;0.20;;;;;;;;;;5102635;28;20333;-74
2021/03/03 09:46:00;;;;;;;0.20;0.20;;;;;;;;;;5105036;28;20099;-74
2021/03/03 09:48:29;;;;;;;0.20;0.20;;;;;;;;;;5105969;28;20726;-75
2021/03/03 09:50:55;;;;;;;0.20;0.20;;;;;;;;;;5086543;28;20016;-74
2021/03/03 09:53:21;;;;;;;0.20;0.20;;;;;;;;;;5103309;28;20069;-74
2021/03/03 09:55:46;;;;;;;0.20;0.20;;;;;;;;;;5107267;28;20012;-74
2021/03/03 09:58:11;;;;;;;0.20;0.20;;;;;;;;;;5104330;28;20579;-74
2021/03/03 10:00:37;;;;;;;0.20;0.20;;;;;;;;;;5103048;28;20080;-75
2021/03/03 10:03:03;;;;;;;0.10;0.10;;;;;;;;;;5087356;28;20266;-74
2021/03/03 10:05:31;;;;;;;0.17;0.17;;;;;;;;;;5104659;28;20020;-75
2021/03/03 10:08:09;;;;;;;0.17;0.17;;;;;;;;;;5111153;28;20069;-74
2021/03/03 10:10:38;;;;;;;0.10;0.10;;;;;;;;;;5103499;28;20495;-74
2021/03/03 10:13:04;;;;;;;0.20;0.20;;;;;;;;;;5109780;28;20106;-74
2021/03/03 10:15:30;;;;;;;0.10;0.10;;;;;;;;;;5114746;28;20074;-74
2021/03/03 10:17:58;;;;;;;0.10;0.10;;;;;;;;;;5100686;28;20024;-74
2021/03/03 10:20:29;;;;;;;0.13;0.13;;;;;;;;;;5112228;28;20111;-74
2021/03/03 10:22:55;;;;;;;0.10;0.10;;;;;;;;;;5102520;28;20022;-75
2021/03/03 10:25:30;;;;;;;0.10;0.10;;;;;;;;;;5103287;28;20099;-74
2021/03/03 10:28:06;;;;;;;0.10;0.10;;;;;;;;;;5084090;28;20019;-76
2021/03/03 10:30:31;;;;;;;;;;;;;;;;;;5060390;28;20777;-73
2021/03/03 10:32:56;;;;;;;0.10;0.10;;;;;;;;;;5062214;28;20432;-72
2021/03/03 10:35:26;;;;;;;0.15;0.15;;;;;;;;;;5070908;28;20067;-75
2021/03/03 10:37:51;;;;;;;0.15;0.15;;;;;;;;;;5070617;28;20673;-74
2021/03/03 10:40:17;;;;;;;0.10;0.10;;;;;;;;;;5069292;28;20024;-73
2021/03/03 10:42:42;;;;;;;0.10;0.10;;;;;;;;;;5061773;28;20021;-74
2021/03/03 10:45:20;;;;;;;0.10;0.10;;;;;;;;;;5062062;28;20029;-75
2021/03/03 10:47:49;;;;;;;0.13;0.13;;;;;;;;;;5062968;28;20095;-74
2021/03/03 10:50:15;;;;;;;0.10;0.10;;;;;;;;;;5062372;28;20025;-74
2021/03/03 10:52:54;;;;;;;0.10;0.10;;;;;;;;;;5061742;28;20066;-74
2021/03/03 10:55:20;;;;;;;0.10;0.10;;;;;;;;;;5063765;28;20075;-74
2021/03/03 10:58:01;;;;;;;0.10;0.10;;;;;;;;;;5042757;28;20473;-74
2021/03/03 11:00:27;;;;;;;0.08;0.08;;;;;;;;;;5068035;28;20103;-74
2021/03/03 11:02:59;;;;;;;0.10;0.10;;;;;;;;;;5067851;28;20096;-75
2021/03/03 11:05:24;;;;;;;0.20;0.20;;;;;;;;;;5069495;28;20759;-74
2021/03/03 11:07:49;;;;;;;0.10;0.10;;;;;;;;;;5061843;28;20025;-74
2021/03/03 11:10:14;;;;;;;0.05;0.05;;;;;;;;;;5069807;28;20274;-74
2021/03/03 11:12:40;;;;;;;0.10;0.10;;;;;;;;;;5061518;28;20031;-74
2021/03/03 11:15:05;;;;;;;0.03;0.03;;;;;;;;;;5064754;28;20032;-74
2021/03/03 11:17:30;;;;;;;0.00;0.00;;;;;;;;;;5061891;28;20054;-74
2021/03/03 11:19:56;;;;;;;0.07;0.07;;;;;;;;;;5071553;28;20013;-74
2021/03/03 11:22:21;;;;;;;0.00;0.00;;;;;;;;;;5066842;28;20355;-74
2021/03/03 11:24:46;;;;;;;0.10;0.10;;;;;;;;;;5063482;28;20266;-73
2021/03/03 11:27:12;;;;;;;0.00;0.00;;;;;;;;;;5063282;28;20020;-74
2021/03/03 11:29:42;;;;;;;0.00;0.00;;;;;;;;;;5074099;28;20495;-74
2021/03/03 11:32:14;;;;;;;0.00;0.00;;;;;;;;;;5102682;28;20027;-75
2021/03/03 11:34:43;;;;;;;0.00;0.00;;;;;;;;;;5092361;28;20051;-76
2021/03/03 11:37:08;;;;;;;0.00;0.00;;;;;;;;;;5103232;28;20396;-73
2021/03/03 11:39:33;;;;;;;0.00;0.00;;;;;;;;;;5104868;28;20045;-74
2021/03/03 11:41:59;;;;;;;0.00;0.00;;;;;;;;;;5082568;28;20028;-74
2021/03/03 11:44:34;;;;;;;0.00;0.00;;;;;;;;;;5107441;28;20265;-73
2021/03/03 11:47:00;;;;;;;0.00;0.00;;;;;;;;;;5106360;28;20661;-72
2021/03/03 11:49:25;;;;;;;0.00;0.00;;;;;;;;;;5103721;28;20036;-73
2021/03/03 11:51:50;;;;;;;0.00;0.00;;;;;;;;;;5102731;28;20028;-73
2021/03/03 11:54:16;;;;;;;0.00;0.00;;;;;;;;;;5101515;28;20023;-73
2021/03/03 11:56:42;;;;;;;0.33;0.00;;;;;;;;;;5103930;28;20103;-74
2021/03/03 11:59:11;;;;;;;0.00;0.00;;;;;;;;;;5102815;28;20254;-74
2021/03/03 12:01:36;;;;;;;0.00;0.00;;;;;;;;;;5103233;28;20027;-74
2021/03/03 12:04:05;;;;;;;0.00;0.00;;;;;;;;;;5101248;28;20050;-74
2021/03/03 12:06:30;;;;;;;0.00;0.00;;;;;;;;;;5101460;28;20274;-72
2021/03/03 12:08:55;;;;;;;0.00;0.00;;;;;;;;;;5102163;28;20023;-72
2021/03/03 12:11:20;;;;;;;0.00;0.00;;;;;;;;;;5103980;28;20020;-72
2021/03/03 12:13:45;;;;;;;0.00;0.00;;;;;;;;;;5101016;28;20372;-72
2021/03/03 12:16:11;;;;;;;0.00;0.00;;;;;;;;;;5101630;28;20317;-72
2021/03/03 12:18:39;;;;;;;0.00;0.00;;;;;;;;;;5085974;28;20456;-72
2021/03/03 12:21:04;;;;;;;0.00;0.00;;;;;;;;;;5099983;28;20668;-73
2021/03/03 12:23:30;;;;;;;0.00;0.00;;;;;;;;;;5106308;28;20020;-73
2021/03/03 12:25:55;;;;;;;0.08;0.00;;;;;;;;;;5106656;28;20069;-74
2021/03/03 12:28:23;;;;;;;0.00;0.00;;;;;;;;;;5100426;28;20361;-73
2021/03/03 12:30:48;;;;;;;0.00;0.00;;;;;;;;;;5083006;28;20039;-74
2021/03/03 12:33:13;;;;;;;0.00;0.00;;;;;;;;;;5103804;28;20400;-73
2021/03/03 12:35:48;;;;;;;0.00;0.00;;;;;;;;;;5085413;28;20111;-73
2021/03/03 12:38:13;;;;;;;0.00;0.00;;;;;;;;;;5104676;28;20088;-74
2021/03/03 12:40:38;;;;;;;0.00;0.00;;;;;;;;;;5101770;28;20040;-73
2021/03/03 12:43:04;;;;;;;0.03;0.00;;;;;;;;;;5103460;28;20027;-73
2021/03/03 12:45:29;;;;;;;0.00;0.00;;;;;;;;;;5102310;28;20277;-73
2021/03/03 12:48:00;;;;;;;0.00;0.00;;;;;;;;;;5104193;28;20020;-74
2021/03/03 12:50:26;;;;;;;0.00;0.00;;;;;;;;;;5103823;28;20016;-72
2021/03/03 12:52:53;;;;;;;0.00;0.00;;;;;;;;;;5104401;28;20047;-74
2021/03/03 12:55:24;;;;;;;0.20;0.00;;;;;;;;;;5105827;28;20028;-74
2021/03/03 12:57:51;;;;;;;0.00;0.00;;;;;;;;;;5106043;28;20022;-73
2021/03/03 13:00:17;;;;;;;0.00;0.00;;;;;;;;;;5108520;28;20072;-73
2021/03/03 13:02:47;;;;;;;0.00;0.00;;;;;;;;;;5108281;28;20023;-74
2021/03/03 13:05:12;;;;;;;0.00;0.00;;;;;;;;;;5086580;28;20028;-74
2021/03/03 13:07:37;;;;;;;0.00;0.00;;;;;;;;;;5105137;28;20475;-74
2021/03/03 13:10:03;;;;;;;0.00;0.00;;;;;;;;;;5095685;28;20478;-74
2021/03/03 13:12:28;;;;;;;0.00;0.00;;;;;;;;;;5088164;28;20023;-74
2021/03/03 13:14:53;;;;;;;0.00;0.00;;;;;;;;;;5107362;28;20058;-74
2021/03/03 13:17:18;;;;;;;0.00;0.00;;;;;;;;;;5103058;28;20016;-74
2021/03/03 13:19:44;;;;;;;0.10;0.00;;;;;;;;;;5103504;28;20032;-75
2021/03/03 13:22:09;;;;;;;0.00;0.00;;;;;;;;;;5087840;28;20279;-75
2021/03/03 13:24:43;;;;;;;0.00;0.00;;;;;;;;;;5110077;28;20569;-75
2021/03/03 13:27:08;;;;;;;0.00;0.00;;;;;;;;;;5102671;28;20274;-74
2021/03/03 13:29:34;;;;;;;0.00;0.00;;;;;;;;;;5105376;28;20539;-74
2021/03/03 13:32:00;;;;;;;0.00;0.00;;;;;;;;;;5106105;28;20553;-74
2021/03/03 13:34:25;;;;;;;0.00;0.00;;;;;;;;;;5102846;28;20027;-75
2021/03/03 13:36:51;;;;;;;0.00;0.00;;;;;;;;;;5104535;28;20030;-74
2021/03/03 13:39:17;;;;;;;0.00;0.00;;;;;;;;;;5084970;28;20020;-74
2021/03/03 13:41:42;;;;;;;0.00;0.00;;;;;;;;;;5102022;28;20073;-75
2021/03/03 13:44:10;;;;;;;0.00;0.00;;;;;;;;;;5083775;28;20048;-74
2021/03/03 13:46:36;;;;;;;0.00;0.00;;;;;;;;;;5104568;28;20016;-74
2021/03/03 13:49:01;;;;;;;0.00;0.00;;;;;;;;;;5104227;28;20012;-73
2021/03/03 13:51:26;;;;;;;0.00;0.00;;;;;;;;;;5103907;28;20105;-73
2021/03/03 13:53:51;;;;;;;0.00;0.00;;;;;;;;;;5103591;28;20038;-72
2021/03/03 13:56:16;;;;;;;0.00;0.00;;;;;;;;;;5100967;28;20491;-72
2021/03/03 13:58:42;;;;;;;0.00;0.00;;;;;;;;;;5100156;28;20034;-74
2021/03/03 14:01:07;;;;;;;0.00;0.00;;;;;;;;;;5102446;28;20768;-72
2021/03/03 14:03:32;;;;;;;0.00;0.00;;;;;;;;;;5103676;28;20028;-74
2021/03/03 14:05:57;;;;;;;0.00;0.00;;;;;;;;;;5101944;28;20026;-75
2021/03/03 14:08:22;;;;;;;0.00;0.00;;;;;;;;;;5105419;28;20028;-74
2021/03/03 14:10:47;;;;;;;0.00;0.00;;;;;;;;;;5105214;28;20026;-74
2021/03/03 14:13:13;;;;;;;0.00;0.00;;;;;;;;;;5104187;28;20281;-74
2021/03/03 14:15:38;;;;;;;0.00;0.00;;;;;;;;;;5105588;28;20796;-75
2021/03/03 14:18:04;;;;;;;0.00;0.00;;;;;;;;;;5088837;28;20034;-75
2021/03/03 14:20:29;;;;;;;0.00;0.00;;;;;;;;;;5104472;28;20278;-74
2021/03/03 14:22:54;;;;;;;0.00;0.00;;;;;;;;;;5103182;28;20077;-74
2021/03/03 14:25:20;;;;;;;0.00;0.00;;;;;;;;;;5101441;28;20073;-74
2021/03/03 14:27:49;;;;;;;0.00;0.00;;;;;;;;;;5106738;28;20269;-73
2021/03/03 14:30:15;;;;;;;0.00;0.00;;;;;;;;;;5103842;28;20043;-74
2021/03/03 14:32:41;;;;;;;0.00;0.00;;;;;;;;;;5103074;28;20391;-72
2021/03/03 14:35:08;;;;;;;0.00;0.00;;;;;;;;;;5103324;28;20023;-72
2021/03/03 14:37:33;;;;;;;0.00;0.00;;;;;;;;;;5102845;28;20456;-74
2021/03/03 14:39:58;;;;;;;0.00;0.00;;;;;;;;;;5101950;28;20031;-73